Bluffton, Indiana
Current Conditions -  °F | °C
As of 11:55 PM on Friday 28 Nov 2014 (Local Time) from KHHG Reporting Station
Scattered Clouds Scattered Clouds  
Wind Chill: 24°   Ceiling: Unl
Heat Index: 32°   Visibility: 10mi
Dew Point: 22°   Wind: 10mph
Humidity: 66%   Direction: 180°S
Pressure: 29.98"   Gusts: NA
Location:  40.74°N, 85.17°W
Report Text: KHHG 290455Z AUTO 18009KT 10SM SCT120 00/M06 A2998 RMK AO2 T00001056 400001079
Loading
Personal Weather Stations






























Interactive Weather Map New forecast layout! Learn more

10-Day Weather Forecast

Advertisements
Track Severe Weather on mobile